sensor_id;sensor_type;location;lat;lon;timestamp;pressure;altitude;pressure_sealevel;temperature;humidity
62942;BME280;49042;47.318;19.874;2023-02-04T00:00:17;99956.63;;;2.73;100.00
62942;BME280;49042;47.318;19.874;2023-02-04T00:03:20;99961.91;;;2.60;100.00
62942;BME280;49042;47.318;19.874;2023-02-04T00:06:22;99964.38;;;2.58;100.00
62942;BME280;49042;47.318;19.874;2023-02-04T00:09:31;99963.16;;;2.51;100.00
62942;BME280;49042;47.318;19.874;2023-02-04T00:12:38;99964.03;;;2.52;100.00
62942;BME280;49042;47.318;19.874;2023-02-04T00:15:43;99963.59;;;2.59;100.00
62942;BME280;49042;47.318;19.874;2023-02-04T00:18:46;99967.94;;;2.60;100.00
62942;BME280;49042;47.318;19.874;2023-02-04T00:21:52;99975.22;;;2.52;100.00
62942;BME280;49042;47.318;19.874;2023-02-04T00:24:58;99972.69;;;2.69;100.00
62942;BME280;49042;47.318;19.874;2023-02-04T00:28:07;99974.16;;;2.64;100.00
62942;BME280;49042;47.318;19.874;2023-02-04T00:31:14;99954.97;;;2.59;100.00
62942;BME280;49042;47.318;19.874;2023-02-04T00:34:18;99954.28;;;2.61;100.00
62942;BME280;49042;47.318;19.874;2023-02-04T00:37:31;99956.59;;;2.56;100.00
62942;BME280;49042;47.318;19.874;2023-02-04T00:40:38;99942.97;;;2.59;100.00
62942;BME280;49042;47.318;19.874;2023-02-04T00:43:43;99942.94;;;2.74;100.00
62942;BME280;49042;47.318;19.874;2023-02-04T00:46:51;99943.13;;;2.77;100.00
62942;BME280;49042;47.318;19.874;2023-02-04T00:49:53;99938.06;;;2.79;100.00
62942;BME280;49042;47.318;19.874;2023-02-04T00:53:04;99938.97;;;2.96;100.00
62942;BME280;49042;47.318;19.874;2023-02-04T00:56:16;99940.34;;;2.89;100.00
62942;BME280;49042;47.318;19.874;2023-02-04T00:59:24;99941.28;;;2.92;100.00
62942;BME280;49042;47.318;19.874;2023-02-04T01:02:28;99933.31;;;2.87;100.00
62942;BME280;49042;47.318;19.874;2023-02-04T01:05:34;99927.81;;;2.81;100.00
62942;BME280;49042;47.318;19.874;2023-02-04T01:08:37;99939.34;;;2.87;100.00
62942;BME280;49042;47.318;19.874;2023-02-04T01:11:38;99934.94;;;2.85;100.00
62942;BME280;49042;47.318;19.874;2023-02-04T01:14:41;99922.47;;;2.93;100.00
62942;BME280;49042;47.318;19.874;2023-02-04T01:17:43;99927.63;;;2.93;100.00
62942;BME280;49042;47.318;19.874;2023-02-04T01:20:47;99932.37;;;3.02;100.00
62942;BME280;49042;47.318;19.874;2023-02-04T01:23:49;99930.94;;;3.07;100.00
62942;BME280;49042;47.318;19.874;2023-02-04T01:26:51;99932.47;;;3.03;100.00
62942;BME280;49042;47.318;19.874;2023-02-04T01:29:53;99918.13;;;3.08;100.00
62942;BME280;49042;47.318;19.874;2023-02-04T01:32:55;99919.00;;;3.09;100.00
62942;BME280;49042;47.318;19.874;2023-02-04T01:35:57;99912.47;;;3.32;99.66
62942;BME280;49042;47.318;19.874;2023-02-04T01:38:58;99914.09;;;3.30;100.00
62942;BME280;49042;47.318;19.874;2023-02-04T01:42:02;99904.97;;;3.37;99.71
62942;BME280;49042;47.318;19.874;2023-02-04T01:45:04;99895.63;;;3.39;99.77
62942;BME280;49042;47.318;19.874;2023-02-04T01:48:09;99892.84;;;3.35;100.00
62942;BME280;49042;47.318;19.874;2023-02-04T01:51:15;99891.28;;;3.38;100.00
62942;BME280;49042;47.318;19.874;2023-02-04T01:54:17;99887.41;;;3.47;99.96
62942;BME280;49042;47.318;19.874;2023-02-04T01:57:21;99885.50;;;3.42;100.00
62942;BME280;49042;47.318;19.874;2023-02-04T02:00:32;99888.44;;;3.50;99.46
62942;BME280;49042;47.318;19.874;2023-02-04T02:03:34;99886.13;;;3.38;100.00
62942;BME280;49042;47.318;19.874;2023-02-04T02:06:38;99890.47;;;3.39;100.00
62942;BME280;49042;47.318;19.874;2023-02-04T02:09:44;99890.41;;;3.38;100.00
62942;BME280;49042;47.318;19.874;2023-02-04T02:12:46;99886.13;;;3.38;100.00
62942;BME280;49042;47.318;19.874;2023-02-04T02:15:48;99890.72;;;3.44;100.00
62942;BME280;49042;47.318;19.874;2023-02-04T02:18:50;99881.28;;;3.45;100.00
62942;BME280;49042;47.318;19.874;2023-02-04T02:22:01;99883.44;;;3.53;99.20
62942;BME280;49042;47.318;19.874;2023-02-04T02:25:11;99888.09;;;3.61;98.61
62942;BME280;49042;47.318;19.874;2023-02-04T02:28:15;99873.03;;;3.69;97.87
62942;BME280;49042;47.318;19.874;2023-02-04T02:31:19;99888.00;;;3.76;97.01
62942;BME280;49042;47.318;19.874;2023-02-04T02:34:22;99892.34;;;3.77;97.08
62942;BME280;49042;47.318;19.874;2023-02-04T02:37:24;99893.91;;;3.73;97.63
62942;BME280;49042;47.318;19.874;2023-02-04T02:40:25;99895.50;;;3.71;97.75
62942;BME280;49042;47.318;19.874;2023-02-04T02:43:27;99906.00;;;3.74;97.41
62942;BME280;49042;47.318;19.874;2023-02-04T02:46:29;99914.59;;;3.75;97.33
62942;BME280;49042;47.318;19.874;2023-02-04T02:49:32;99914.28;;;3.69;97.98
62942;BME280;49042;47.318;19.874;2023-02-04T02:52:35;99912.69;;;3.71;97.58
62942;BME280;49042;47.318;19.874;2023-02-04T02:55:37;99911.06;;;3.73;97.11
62942;BME280;49042;47.318;19.874;2023-02-04T02:58:38;99908.03;;;3.63;98.64
62942;BME280;49042;47.318;19.874;2023-02-04T03:01:40;99902.53;;;3.57;99.15
62942;BME280;49042;47.318;19.874;2023-02-04T03:04:48;99909.66;;;3.45;100.00
62942;BME280;49042;47.318;19.874;2023-02-04T03:07:50;99905.53;;;3.48;99.88
62942;BME280;49042;47.318;19.874;2023-02-04T03:10:52;99905.09;;;3.39;100.00
62942;BME280;49042;47.318;19.874;2023-02-04T03:13:55;99897.56;;;3.43;100.00
62942;BME280;49042;47.318;19.874;2023-02-04T03:17:00;99903.69;;;3.46;100.00
62942;BME280;49042;47.318;19.874;2023-02-04T03:20:03;99895.63;;;3.39;100.00
62942;BME280;49042;47.318;19.874;2023-02-04T03:23:05;99895.56;;;3.38;100.00
62942;BME280;49042;47.318;19.874;2023-02-04T03:26:07;99896.03;;;3.47;100.00
62942;BME280;49042;47.318;19.874;2023-02-04T03:29:09;99891.69;;;3.46;100.00
62942;BME280;49042;47.318;19.874;2023-02-04T03:32:11;99896.44;;;3.55;100.00
62942;BME280;49042;47.318;19.874;2023-02-04T03:35:13;99897.31;;;3.56;100.00
62942;BME280;49042;47.318;19.874;2023-02-04T03:38:15;99899.00;;;3.55;100.00
62942;BME280;49042;47.318;19.874;2023-02-04T03:41:17;99899.81;;;3.54;100.00
62942;BME280;49042;47.318;19.874;2023-02-04T03:44:19;99885.16;;;3.53;100.00
62942;BME280;49042;47.318;19.874;2023-02-04T03:47:22;99889.88;;;3.62;98.88
62942;BME280;49042;47.318;19.874;2023-02-04T03:50:23;99881.25;;;3.61;99.21
62942;BME280;49042;47.318;19.874;2023-02-04T03:53:25;99869.19;;;3.60;99.75
62942;BME280;49042;47.318;19.874;2023-02-04T03:56:27;99867.56;;;3.62;99.57
62942;BME280;49042;47.318;19.874;2023-02-04T03:59:29;99859.81;;;3.62;100.00
62942;BME280;49042;47.318;19.874;2023-02-04T04:02:30;99862.03;;;3.73;99.84
62942;BME280;49042;47.318;19.874;2023-02-04T04:05:32;99875.19;;;3.78;99.83
62942;BME280;49042;47.318;19.874;2023-02-04T04:08:34;99872.09;;;3.85;99.18
62942;BME280;49042;47.318;19.874;2023-02-04T04:11:36;99864.50;;;3.88;98.88
62942;BME280;49042;47.318;19.874;2023-02-04T04:14:38;99865.81;;;3.80;100.00
62942;BME280;49042;47.318;19.874;2023-02-04T04:17:39;99857.97;;;3.78;100.00
62942;BME280;49042;47.318;19.874;2023-02-04T04:20:41;99863.16;;;3.78;100.00
62942;BME280;49042;47.318;19.874;2023-02-04T04:23:43;99858.06;;;3.80;100.00
62942;BME280;49042;47.318;19.874;2023-02-04T04:26:44;99856.37;;;3.80;100.00
62942;BME280;49042;47.318;19.874;2023-02-04T04:29:46;99854.75;;;3.82;99.99
62942;BME280;49042;47.318;19.874;2023-02-04T04:32:48;99856.81;;;3.90;98.84
62942;BME280;49042;47.318;19.874;2023-02-04T04:35:49;99857.72;;;3.90;98.88
62942;BME280;49042;47.318;19.874;2023-02-04T04:38:51;99843.88;;;3.88;98.99
62942;BME280;49042;47.318;19.874;2023-02-04T04:41:53;99846.13;;;3.82;99.98
62942;BME280;49042;47.318;19.874;2023-02-04T04:44:54;99844.28;;;3.79;100.00
62942;BME280;49042;47.318;19.874;2023-02-04T04:47:56;99836.50;;;3.78;100.00
62942;BME280;49042;47.318;19.874;2023-02-04T04:50:58;99833.91;;;3.78;100.00
62942;BME280;49042;47.318;19.874;2023-02-04T04:53:59;99827.88;;;3.77;100.00
62942;BME280;49042;47.318;19.874;2023-02-04T04:57:01;99832.87;;;3.74;100.00
62942;BME280;49042;47.318;19.874;2023-02-04T05:00:05;99831.19;;;3.74;100.00
62942;BME280;49042;47.318;19.874;2023-02-04T05:03:07;99834.28;;;3.67;100.00
62942;BME280;49042;47.318;19.874;2023-02-04T05:06:09;99823.94;;;3.67;100.00
62942;BME280;49042;47.318;19.874;2023-02-04T05:09:11;99829.16;;;3.69;100.00
62942;BME280;49042;47.318;19.874;2023-02-04T05:12:13;99824.75;;;3.66;100.00
62942;BME280;49042;47.318;19.874;2023-02-04T05:15:15;99824.38;;;3.58;100.00
62942;BME280;49042;47.318;19.874;2023-02-04T05:18:16;99815.09;;;3.62;100.00
62942;BME280;49042;47.318;19.874;2023-02-04T05:21:18;99827.59;;;3.54;100.00
62942;BME280;49042;47.318;19.874;2023-02-04T05:24:20;99818.97;;;3.53;100.00
62942;BME280;49042;47.318;19.874;2023-02-04T05:27:21;99814.56;;;3.51;100.00
62942;BME280;49042;47.318;19.874;2023-02-04T05:30:23;99812.06;;;3.52;100.00
62942;BME280;49042;47.318;19.874;2023-02-04T05:33:25;99804.38;;;3.54;100.00
62942;BME280;49042;47.318;19.874;2023-02-04T05:36:27;99811.75;;;3.64;100.00
62942;BME280;49042;47.318;19.874;2023-02-04T05:39:29;99816.94;;;3.64;100.00
62942;BME280;49042;47.318;19.874;2023-02-04T05:42:30;99816.13;;;3.66;100.00
62942;BME280;49042;47.318;19.874;2023-02-04T05:45:32;99809.94;;;3.62;100.00
62942;BME280;49042;47.318;19.874;2023-02-04T05:48:34;99802.34;;;3.65;100.00
62942;BME280;49042;47.318;19.874;2023-02-04T05:51:35;99814.84;;;3.57;100.00
62942;BME280;49042;47.318;19.874;2023-02-04T05:54:37;99813.09;;;3.56;100.00
62942;BME280;49042;47.318;19.874;2023-02-04T05:57:39;99823.31;;;3.55;100.00
62942;BME280;49042;47.318;19.874;2023-02-04T06:00:40;99823.09;;;3.50;100.00
62942;BME280;49042;47.318;19.874;2023-02-04T06:03:42;99813.66;;;3.50;100.00
62942;BME280;49042;47.318;19.874;2023-02-04T06:06:44;99804.38;;;3.54;100.00
62942;BME280;49042;47.318;19.874;2023-02-04T06:09:45;99813.91;;;3.55;100.00
62942;BME280;49042;47.318;19.874;2023-02-04T06:12:47;99800.66;;;3.66;99.81
62942;BME280;49042;47.318;19.874;2023-02-04T06:15:49;99803.75;;;3.77;97.93
62942;BME280;49042;47.318;19.874;2023-02-04T06:18:51;99811.72;;;3.81;97.15
62942;BME280;49042;47.318;19.874;2023-02-04T06:21:52;99822.69;;;3.77;97.74
62942;BME280;49042;47.318;19.874;2023-02-04T06:24:54;99831.19;;;3.74;97.88
62942;BME280;49042;47.318;19.874;2023-02-04T06:27:56;99826.47;;;3.84;96.22
62942;BME280;49042;47.318;19.874;2023-02-04T06:30:57;99824.69;;;3.83;96.69
62942;BME280;49042;47.318;19.874;2023-02-04T06:33:59;99816.19;;;3.85;95.98
62942;BME280;49042;47.318;19.874;2023-02-04T06:37:01;99830.06;;;3.88;95.83
62942;BME280;49042;47.318;19.874;2023-02-04T06:40:03;99827.63;;;3.91;96.07
62942;BME280;49042;47.318;19.874;2023-02-04T06:43:05;99828.16;;;4.02;94.10
62942;BME280;49042;47.318;19.874;2023-02-04T06:46:07;99828.00;;;3.99;95.62
62942;BME280;49042;47.318;19.874;2023-02-04T06:49:08;99829.84;;;4.01;94.25
62942;BME280;49042;47.318;19.874;2023-02-04T06:52:10;99828.44;;;4.08;93.42
62942;BME280;49042;47.318;19.874;2023-02-04T06:55:13;99830.88;;;4.05;93.52
62942;BME280;49042;47.318;19.874;2023-02-04T06:58:15;99828.31;;;4.05;92.14
62942;BME280;49042;47.318;19.874;2023-02-04T07:01:17;99854.13;;;4.05;92.01
62942;BME280;49042;47.318;19.874;2023-02-04T07:04:19;99860.16;;;4.05;91.11
62942;BME280;49042;47.318;19.874;2023-02-04T07:07:20;99866.41;;;4.11;90.89
62942;BME280;49042;47.318;19.874;2023-02-04T07:10:22;99860.44;;;4.12;90.54
62942;BME280;49042;47.318;19.874;2023-02-04T07:13:24;99859.66;;;4.13;89.64
62942;BME280;49042;47.318;19.874;2023-02-04T07:16:25;99846.75;;;4.13;87.71
62942;BME280;49042;47.318;19.874;2023-02-04T07:19:27;99846.13;;;4.18;87.51
62942;BME280;49042;47.318;19.874;2023-02-04T07:22:29;99846.50;;;4.26;86.86
62942;BME280;49042;47.318;19.874;2023-02-04T07:25:30;99841.91;;;4.39;85.40
62942;BME280;49042;47.318;19.874;2023-02-04T07:28:32;99847.84;;;4.56;84.80
62942;BME280;49042;47.318;19.874;2023-02-04T07:31:34;99867.66;;;4.76;83.44
62942;BME280;49042;47.318;19.874;2023-02-04T07:34:35;99859.62;;;5.09;81.89
62942;BME280;49042;47.318;19.874;2023-02-04T07:37:37;99877.44;;;5.01;79.87
62942;BME280;49042;47.318;19.874;2023-02-04T07:40:39;99877.94;;;5.14;78.44
62942;BME280;49042;47.318;19.874;2023-02-04T07:43:41;99889.53;;;4.64;79.64
62942;BME280;49042;47.318;19.874;2023-02-04T07:46:42;99910.41;;;4.31;81.43
62942;BME280;49042;47.318;19.874;2023-02-04T07:49:44;99909.13;;;4.41;81.16
62942;BME280;49042;47.318;19.874;2023-02-04T07:52:46;99918.63;;;4.05;83.67
62942;BME280;49042;47.318;19.874;2023-02-04T07:55:47;99920.03;;;3.98;83.51
62942;BME280;49042;47.318;19.874;2023-02-04T07:58:49;99937.84;;;3.93;84.64
62942;BME280;49042;47.318;19.874;2023-02-04T08:01:51;99950.91;;;3.96;83.14
62942;BME280;49042;47.318;19.874;2023-02-04T08:04:53;99956.41;;;3.86;84.02
62942;BME280;49042;47.318;19.874;2023-02-04T08:07:54;99958.53;;;3.77;85.03
62942;BME280;49042;47.318;19.874;2023-02-04T08:10:56;99951.47;;;3.56;85.15
62942;BME280;49042;47.318;19.874;2023-02-04T08:13:59;99960.09;;;3.56;85.08
62942;BME280;49042;47.318;19.874;2023-02-04T08:17:00;99958.47;;;3.58;84.86
62942;BME280;49042;47.318;19.874;2023-02-04T08:20:03;99973.62;;;3.69;84.71
62942;BME280;49042;47.318;19.874;2023-02-04T08:23:05;99971.91;;;3.69;84.64
62942;BME280;49042;47.318;19.874;2023-02-04T08:26:10;99987.28;;;4.01;84.73
62942;BME280;49042;47.318;19.874;2023-02-04T08:29:12;99991.81;;;3.89;83.16
62942;BME280;49042;47.318;19.874;2023-02-04T08:32:14;100001.25;;;3.71;83.94
62942;BME280;49042;47.318;19.874;2023-02-04T08:35:16;100026.41;;;3.75;83.74
62942;BME280;49042;47.318;19.874;2023-02-04T08:38:18;100027.22;;;3.58;83.23
62942;BME280;49042;47.318;19.874;2023-02-04T08:41:20;100033.84;;;3.52;83.81
62942;BME280;49042;47.318;19.874;2023-02-04T08:44:22;100039.88;;;3.53;82.94
62942;BME280;49042;47.318;19.874;2023-02-04T08:47:23;100044.06;;;3.51;82.58
62942;BME280;49042;47.318;19.874;2023-02-04T08:50:25;100061.31;;;3.52;83.33
62942;BME280;49042;47.318;19.874;2023-02-04T08:53:29;100063.47;;;3.61;80.29
62942;BME280;49042;47.318;19.874;2023-02-04T08:56:30;100064.13;;;7.67;59.75
62942;BME280;49042;47.318;19.874;2023-02-04T08:59:32;100078.22;;;9.62;50.56
62942;BME280;49042;47.318;19.874;2023-02-04T09:02:34;100097.00;;;10.80;46.40
62942;BME280;49042;47.318;19.874;2023-02-04T09:05:35;100095.88;;;11.46;44.83
62942;BME280;49042;47.318;19.874;2023-02-04T09:08:37;100098.69;;;11.99;42.10
62942;BME280;49042;47.318;19.874;2023-02-04T09:11:39;100123.38;;;12.62;42.14
62942;BME280;49042;47.318;19.874;2023-02-04T09:14:41;100140.09;;;10.01;45.31
62942;BME280;49042;47.318;19.874;2023-02-04T09:17:42;100143.13;;;5.84;59.24
62942;BME280;49042;47.318;19.874;2023-02-04T09:20:44;100150.81;;;5.07;64.89
62942;BME280;49042;47.318;19.874;2023-02-04T09:23:46;100172.81;;;4.64;67.05
62942;BME280;49042;47.318;19.874;2023-02-04T09:26:49;100179.78;;;4.48;69.81
62942;BME280;49042;47.318;19.874;2023-02-04T09:29:51;100182.69;;;4.54;67.47
62942;BME280;49042;47.318;19.874;2023-02-04T09:32:52;100194.53;;;4.67;67.29
62942;BME280;49042;47.318;19.874;2023-02-04T09:35:54;100205.47;;;4.45;67.37
62942;BME280;49042;47.318;19.874;2023-02-04T09:38:56;100215.44;;;4.38;70.06
62942;BME280;49042;47.318;19.874;2023-02-04T09:41:57;100222.72;;;4.29;68.71
62942;BME280;49042;47.318;19.874;2023-02-04T09:44:59;100229.56;;;4.28;70.68
62942;BME280;49042;47.318;19.874;2023-02-04T09:48:04;100242.62;;;4.15;69.53
62942;BME280;49042;47.318;19.874;2023-02-04T09:51:11;100266.84;;;3.85;72.22
62942;BME280;49042;47.318;19.874;2023-02-04T09:54:18;100282.34;;;3.85;74.49
62942;BME280;49042;47.318;19.874;2023-02-04T09:57:20;100294.75;;;3.60;77.10
62942;BME280;49042;47.318;19.874;2023-02-04T10:00:24;100304.16;;;3.29;80.71
62942;BME280;49042;47.318;19.874;2023-02-04T10:03:26;100327.78;;;3.07;87.09
62942;BME280;49042;47.318;19.874;2023-02-04T10:06:28;100318.56;;;2.82;90.99
62942;BME280;49042;47.318;19.874;2023-02-04T10:09:30;100340.81;;;2.95;91.57
62942;BME280;49042;47.318;19.874;2023-02-04T10:12:32;100331.44;;;3.26;88.79
62942;BME280;49042;47.318;19.874;2023-02-04T10:15:33;100348.87;;;3.75;88.63
62942;BME280;49042;47.318;19.874;2023-02-04T10:18:35;100360.75;;;4.19;86.09
62942;BME280;49042;47.318;19.874;2023-02-04T10:21:38;100367.88;;;4.23;83.62
62942;BME280;49042;47.318;19.874;2023-02-04T10:24:43;100381.81;;;4.91;80.21
62942;BME280;49042;47.318;19.874;2023-02-04T10:27:56;100394.16;;;4.80;76.96
62942;BME280;49042;47.318;19.874;2023-02-04T10:30:58;100413.69;;;4.91;75.26
62942;BME280;49042;47.318;19.874;2023-02-04T10:37:31;100426.47;;;5.39;69.13
62942;BME280;49042;47.318;19.874;2023-02-04T10:40:34;100455.47;;;4.99;56.86
62942;BME280;49042;47.318;19.874;2023-02-04T10:43:36;100465.97;;;4.70;54.36
62942;BME280;49042;47.318;19.874;2023-02-04T10:46:39;100474.37;;;4.66;54.14
62942;BME280;49042;47.318;19.874;2023-02-04T10:52:58;100511.91;;;3.99;54.84
62942;BME280;49042;47.318;19.874;2023-02-04T10:56:20;100532.66;;;4.15;54.79
62942;BME280;49042;47.318;19.874;2023-02-04T10:59:23;100525.78;;;4.01;54.14
62942;BME280;49042;47.318;19.874;2023-02-04T11:05:42;100542.97;;;4.15;52.21
62942;BME280;49042;47.318;19.874;2023-02-04T11:08:44;100558.19;;;4.11;51.03
62942;BME280;49042;47.318;19.874;2023-02-04T11:11:48;100570.88;;;4.36;51.81
62942;BME280;49042;47.318;19.874;2023-02-04T11:14:57;100576.94;;;4.52;51.60
62942;BME280;49042;47.318;19.874;2023-02-04T11:18:04;100592.31;;;4.35;50.72
62942;BME280;49042;47.318;19.874;2023-02-04T11:22:02;100599.91;;;4.47;50.23
62942;BME280;49042;47.318;19.874;2023-02-04T11:24:34;100614.88;;;4.53;49.27
62942;BME280;49042;47.318;19.874;2023-02-04T11:27:39;100625.50;;;4.14;50.56
62942;BME280;49042;47.318;19.874;2023-02-04T11:30:41;100629.53;;;4.24;49.37
62942;BME280;49042;47.318;19.874;2023-02-04T11:33:43;100644.19;;;4.10;48.82
62942;BME280;49042;47.318;19.874;2023-02-04T11:37:03;100650.94;;;3.79;49.19
62942;BME280;49042;47.318;19.874;2023-02-04T11:40:28;100660.00;;;4.01;49.01
62942;BME280;49042;47.318;19.874;2023-02-04T11:43:34;100671.63;;;3.94;48.44
62942;BME280;49042;47.318;19.874;2023-02-04T11:46:36;100680.91;;;4.19;47.65
62942;BME280;49042;47.318;19.874;2023-02-04T11:49:38;100690.44;;;4.06;47.98
62942;BME280;49042;47.318;19.874;2023-02-04T11:52:39;100703.16;;;4.03;47.84
62942;BME280;49042;47.318;19.874;2023-02-04T11:55:45;100708.50;;;4.20;48.48
62942;BME280;49042;47.318;19.874;2023-02-04T11:58:49;100723.44;;;3.97;46.63
62942;BME280;49042;47.318;19.874;2023-02-04T12:02:02;100736.72;;;4.03;47.23
62942;BME280;49042;47.318;19.874;2023-02-04T12:05:10;100739.16;;;3.87;45.93
62942;BME280;49042;47.318;19.874;2023-02-04T12:08:42;100751.16;;;3.86;45.91
62942;BME280;49042;47.318;19.874;2023-02-04T12:11:58;100750.91;;;4.10;45.48
62942;BME280;49042;47.318;19.874;2023-02-04T12:15:23;100749.25;;;3.97;44.35
62942;BME280;49042;47.318;19.874;2023-02-04T12:18:25;100759.88;;;4.02;44.77
62942;BME280;49042;47.318;19.874;2023-02-04T12:21:30;100775.78;;;3.94;44.88
62942;BME280;49042;47.318;19.874;2023-02-04T12:24:32;100777.16;;;3.89;45.69
62942;BME280;49042;47.318;19.874;2023-02-04T12:27:33;100797.19;;;3.93;45.35
62942;BME280;49042;47.318;19.874;2023-02-04T12:30:35;100795.22;;;4.03;45.85
62942;BME280;49042;47.318;19.874;2023-02-04T12:33:37;100815.38;;;3.81;44.76
62942;BME280;49042;47.318;19.874;2023-02-04T12:36:38;100805.84;;;3.94;45.18
62942;BME280;49042;47.318;19.874;2023-02-04T12:39:40;100827.69;;;3.99;44.37
62942;BME280;49042;47.318;19.874;2023-02-04T12:42:42;100835.53;;;4.01;43.38
62942;BME280;49042;47.318;19.874;2023-02-04T12:45:44;100837.31;;;3.88;43.16
62942;BME280;49042;47.318;19.874;2023-02-04T12:48:48;100847.13;;;3.80;42.78
62942;BME280;49042;47.318;19.874;2023-02-04T12:51:50;100869.84;;;3.86;42.86
62942;BME280;49042;47.318;19.874;2023-02-04T12:54:52;100870.06;;;3.75;42.45
62942;BME280;49042;47.318;19.874;2023-02-04T12:57:54;100888.22;;;3.91;41.43
62942;BME280;49042;47.318;19.874;2023-02-04T13:00:56;100895.16;;;3.78;40.70
62942;BME280;49042;47.318;19.874;2023-02-04T13:03:58;100918.47;;;3.66;40.03
62942;BME280;49042;47.318;19.874;2023-02-04T13:07:00;100918.50;;;3.80;40.78
62942;BME280;49042;47.318;19.874;2023-02-04T13:10:04;100932.00;;;3.89;40.38
62942;BME280;49042;47.318;19.874;2023-02-04T13:13:06;100938.59;;;4.11;41.04
62942;BME280;49042;47.318;19.874;2023-02-04T13:16:07;100940.19;;;4.23;39.54
62942;BME280;49042;47.318;19.874;2023-02-04T13:19:09;100970.66;;;4.28;39.72
62942;BME280;49042;47.318;19.874;2023-02-04T13:22:11;100960.53;;;4.04;40.44
62942;BME280;49042;47.318;19.874;2023-02-04T13:25:13;100968.78;;;4.26;41.05
62942;BME280;49042;47.318;19.874;2023-02-04T13:28:15;100986.84;;;4.12;41.41
62942;BME280;49042;47.318;19.874;2023-02-04T13:31:16;101004.41;;;4.04;42.50
62942;BME280;49042;47.318;19.874;2023-02-04T13:34:18;101005.56;;;3.96;42.28
62942;BME280;49042;47.318;19.874;2023-02-04T13:37:20;101021.72;;;4.19;43.66
62942;BME280;49042;47.318;19.874;2023-02-04T13:40:22;101029.09;;;3.87;42.97
62942;BME280;49042;47.318;19.874;2023-02-04T13:43:23;101042.75;;;3.86;42.58
62942;BME280;49042;47.318;19.874;2023-02-04T13:46:25;101055.94;;;3.77;43.52
62942;BME280;49042;47.318;19.874;2023-02-04T13:49:27;101050.31;;;3.83;42.59
62942;BME280;49042;47.318;19.874;2023-02-04T13:52:28;101066.84;;;3.73;42.62
62942;BME280;49042;47.318;19.874;2023-02-04T13:55:30;101070.87;;;3.69;43.44
62942;BME280;49042;47.318;19.874;2023-02-04T13:58:33;101070.00;;;3.69;42.86
62942;BME280;49042;47.318;19.874;2023-02-04T14:01:34;101089.03;;;3.45;43.89
62942;BME280;49042;47.318;19.874;2023-02-04T14:04:36;101098.91;;;3.39;44.67
62942;BME280;49042;47.318;19.874;2023-02-04T14:07:38;101106.44;;;3.36;45.35
62942;BME280;49042;47.318;19.874;2023-02-04T14:10:39;101114.19;;;3.24;45.51
62942;BME280;49042;47.318;19.874;2023-02-04T14:13:41;101115.28;;;3.27;45.75
62942;BME280;49042;47.318;19.874;2023-02-04T14:16:43;101115.97;;;3.00;46.20
62942;BME280;49042;47.318;19.874;2023-02-04T14:19:45;101120.34;;;3.14;46.69
62942;BME280;49042;47.318;19.874;2023-02-04T14:22:47;101127.97;;;2.88;47.22
62942;BME280;49042;47.318;19.874;2023-02-04T14:25:48;101134.81;;;2.75;47.08
62942;BME280;49042;47.318;19.874;2023-02-04T14:28:50;101119.00;;;2.71;47.47
62942;BME280;49042;47.318;19.874;2023-02-04T14:31:52;101133.44;;;2.69;48.65
62942;BME280;49042;47.318;19.874;2023-02-04T14:34:54;101136.34;;;2.73;48.40
62942;BME280;49042;47.318;19.874;2023-02-04T14:37:56;101140.50;;;2.71;47.83
62942;BME280;49042;47.318;19.874;2023-02-04T14:40:57;101147.19;;;2.57;47.61
62942;BME280;49042;47.318;19.874;2023-02-04T14:43:59;101160.78;;;2.78;47.98
62942;BME280;49042;47.318;19.874;2023-02-04T14:47:01;101159.22;;;2.81;48.56
62942;BME280;49042;47.318;19.874;2023-02-04T14:50:04;101176.16;;;2.42;47.70
62942;BME280;49042;47.318;19.874;2023-02-04T14:53:07;101171.59;;;2.50;47.86
62942;BME280;49042;47.318;19.874;2023-02-04T14:56:08;101172.72;;;2.54;47.73
62942;BME280;49042;47.318;19.874;2023-02-04T14:59:10;101173.13;;;2.48;48.21
62942;BME280;49042;47.318;19.874;2023-02-04T15:02:12;101183.72;;;2.29;48.13
62942;BME280;49042;47.318;19.874;2023-02-04T15:05:17;101185.16;;;2.25;46.98
62942;BME280;49042;47.318;19.874;2023-02-04T15:08:19;101190.53;;;2.06;47.66
62942;BME280;49042;47.318;19.874;2023-02-04T15:11:21;101197.50;;;1.74;48.43
62942;BME280;49042;47.318;19.874;2023-02-04T15:14:22;101207.41;;;2.02;48.95
62942;BME280;49042;47.318;19.874;2023-02-04T15:17:24;101220.37;;;1.81;49.51
62942;BME280;49042;47.318;19.874;2023-02-04T15:20:26;101216.78;;;1.79;49.03
62942;BME280;49042;47.318;19.874;2023-02-04T15:23:27;101229.41;;;1.76;49.21
62942;BME280;49042;47.318;19.874;2023-02-04T15:26:29;101231.47;;;1.80;48.47
62942;BME280;49042;47.318;19.874;2023-02-04T15:29:31;101242.44;;;1.56;49.67
62942;BME280;49042;47.318;19.874;2023-02-04T15:32:33;101242.06;;;1.62;49.19
62942;BME280;49042;47.318;19.874;2023-02-04T15:35:35;101247.72;;;1.58;49.80
62942;BME280;49042;47.318;19.874;2023-02-04T15:38:37;101249.38;;;1.68;50.16
62942;BME280;49042;47.318;19.874;2023-02-04T15:41:39;101257.44;;;1.29;50.73
62942;BME280;49042;47.318;19.874;2023-02-04T15:44:41;101262.19;;;1.14;50.13
62942;BME280;49042;47.318;19.874;2023-02-04T15:47:42;101271.06;;;1.28;50.78
62942;BME280;49042;47.318;19.874;2023-02-04T15:50:44;101287.13;;;1.04;51.76
62942;BME280;49042;47.318;19.874;2023-02-04T15:53:46;101296.91;;;1.09;51.70
62942;BME280;49042;47.318;19.874;2023-02-04T15:56:48;101304.47;;;1.17;52.62
62942;BME280;49042;47.318;19.874;2023-02-04T15:59:50;101310.50;;;1.39;52.58
62942;BME280;49042;47.318;19.874;2023-02-04T16:02:52;101306.28;;;1.29;52.35
62942;BME280;49042;47.318;19.874;2023-02-04T16:05:54;101312.69;;;1.24;52.49
62942;BME280;49042;47.318;19.874;2023-02-04T16:08:56;101331.84;;;1.27;52.43